Langdon, North Dakota
Current Conditions -  °F | °C
As of 5:15 PM on Friday 31 Oct 2014 (Local Time) from KD55 Reporting Station
Clear Clear  
Wind Chill: 25°   Ceiling: Unl
Heat Index: 36°   Visibility: 10mi
Dew Point: 12°   Wind: 21mph
Humidity: 38%   Direction: 170°S
Pressure: 30.32"   Gusts: 26mph
Location:  48.76°N, 98.37°W
Report Text: KD55 312215Z AUTO 17018G23KT 10SM CLR 02/M11 A3032 RMK AO2
Loading
Personal Weather Stations






























Interactive Weather Map
Tropical Storm Tracking
New forecast layout! Learn more

10-Day Weather Forecast

Advertisements
Track Severe Weather on mobile